Time;durP1;ratioP1;P1;durP2;ratioP2;P2;SDS_P1;SDS_P2;PMS_P1;PMS_P2;Temp;Humidity;BMP_temperature;BMP_pressure;BME280_temperature;BME280_humidity;BME280_pressure;Samples;Min_cycle;Max_cycle;Signal;HPM_P1;HPM_P2
2021/12/06 00:01:04;;;;;;;1.10;0.70;;;3.90;99.90;;;;;;5115525;28;20880;-59
2021/12/06 00:03:41;;;;;;;2.60;0.90;;;3.80;99.90;;;;;;5115628;28;20838;-59
2021/12/06 00:06:27;;;;;;;1.60;1.00;;;3.80;99.90;;;;;;5116180;28;20411;-59
2021/12/06 00:09:03;;;;;;;1.93;0.90;;;3.80;99.90;;;;;;5116067;28;20444;-58
2021/12/06 00:11:45;;;;;;;1.10;0.90;;;3.90;99.90;;;;;;5116383;28;20444;-60
2021/12/06 00:14:15;;;;;;;1.53;0.80;;;3.90;99.90;;;;;;5116003;27;20463;-58
2021/12/06 00:16:50;;;;;;;1.50;0.70;;;3.90;99.90;;;;;;5117227;28;20755;-60
2021/12/06 00:19:21;;;;;;;1.90;0.73;;;3.90;99.90;;;;;;5116323;28;20456;-59
2021/12/06 00:21:54;;;;;;;2.03;1.00;;;3.90;99.90;;;;;;5117551;28;20907;-60
2021/12/06 00:24:25;;;;;;;4.00;1.10;;;3.90;99.90;;;;;;5116807;28;20957;-60
2021/12/06 00:26:56;;;;;;;1.20;0.87;;;4.00;99.90;;;;;;5117297;28;20484;-59
2021/12/06 00:29:25;;;;;;;2.50;0.70;;;4.00;99.90;;;;;;5117406;28;20510;-59
2021/12/06 00:31:53;;;;;;;1.17;0.73;;;4.00;99.90;;;;;;5117894;28;20498;-60
2021/12/06 00:34:34;;;;;;;1.77;1.33;;;4.00;99.90;;;;;;5116513;28;20457;-58
2021/12/06 00:37:18;;;;;;;2.50;0.90;;;4.00;99.90;;;;;;5116104;28;20541;-59
2021/12/06 00:39:55;;;;;;;3.43;1.00;;;3.90;99.90;;;;;;5117248;27;20464;-60
2021/12/06 00:42:26;;;;;;;1.70;0.77;;;3.90;99.90;;;;;;5116801;28;20858;-60
2021/12/06 00:44:56;;;;;;;1.93;0.80;;;3.80;99.90;;;;;;5115549;28;20728;-59
2021/12/06 00:47:28;;;;;;;4.43;1.23;;;3.80;99.90;;;;;;5115271;28;20571;-59
2021/12/06 00:49:56;;;;;;;1.40;0.70;;;3.80;99.90;;;;;;5116056;28;20427;-59
2021/12/06 00:52:24;;;;;;;4.00;0.80;;;3.80;99.90;;;;;;5115618;28;20452;-59
2021/12/06 00:54:58;;;;;;;1.77;0.90;;;3.90;99.90;;;;;;5115726;28;20452;-59
2021/12/06 00:57:31;;;;;;;2.10;0.90;;;3.90;99.90;;;;;;5115198;27;20513;-59
2021/12/06 01:00:02;;;;;;;2.40;0.90;;;3.90;99.90;;;;;;5116030;28;20448;-59
2021/12/06 01:02:30;;;;;;;2.10;0.70;;;3.90;99.90;;;;;;5114334;28;20514;-59
2021/12/06 01:04:58;;;;;;;2.80;0.90;;;3.80;99.90;;;;;;5116952;28;20459;-59
2021/12/06 01:07:25;;;;;;;2.17;0.90;;;3.80;99.90;;;;;;5114936;28;20746;-59
2021/12/06 01:09:57;;;;;;;1.33;0.77;;;3.70;99.90;;;;;;5116761;28;20472;-59
2021/12/06 01:12:24;;;;;;;1.50;0.80;;;3.80;99.90;;;;;;5116707;28;20440;-59
2021/12/06 01:14:53;;;;;;;1.07;0.80;;;3.70;99.90;;;;;;5115927;28;20796;-59
2021/12/06 01:17:25;;;;;;;1.57;1.00;;;3.60;99.90;;;;;;5115969;28;20880;-59
2021/12/06 01:19:52;;;;;;;1.50;0.90;;;3.70;99.90;;;;;;5116831;28;20573;-59
2021/12/06 01:22:26;;;;;;;4.30;1.30;;;3.70;99.90;;;;;;5115039;28;20714;-59
2021/12/06 01:25:00;;;;;;;2.00;1.23;;;3.70;99.90;;;;;;5115420;28;20427;-59
2021/12/06 01:27:47;;;;;;;2.30;0.90;;;3.80;99.90;;;;;;5115330;28;20479;-59
2021/12/06 01:30:29;;;;;;;1.90;0.93;;;3.80;99.90;;;;;;5115549;28;20543;-59
2021/12/06 01:41:21;;;;;;;1.50;1.40;;;3.60;99.90;;;;;;5116144;28;20730;-59
2021/12/06 01:44:13;;;;;;;3.80;1.20;;;3.60;99.90;;;;;;5116577;28;20414;-59
2021/12/06 01:46:42;;;;;;;2.77;1.00;;;3.70;99.90;;;;;;5115478;28;20437;-60
2021/12/06 01:49:10;;;;;;;2.40;1.20;;;3.70;99.90;;;;;;5116369;28;20464;-59
2021/12/06 01:51:38;;;;;;;2.40;1.33;;;3.60;99.90;;;;;;5116651;28;20766;-59
2021/12/06 01:54:08;;;;;;;1.80;1.30;;;3.60;99.90;;;;;;5116221;28;20937;-59
2021/12/06 01:56:37;;;;;;;2.83;1.40;;;3.50;99.90;;;;;;5116600;28;20437;-59
2021/12/06 01:59:07;;;;;;;4.17;2.50;;;3.50;99.90;;;;;;5116242;28;20862;-59
2021/12/06 02:01:35;;;;;;;2.00;1.33;;;3.60;99.90;;;;;;5115903;28;20456;-59
2021/12/06 02:04:02;;;;;;;4.13;1.30;;;3.50;99.90;;;;;;5114902;28;20498;-59
2021/12/06 02:06:30;;;;;;;2.83;1.20;;;3.60;99.90;;;;;;5115922;28;20448;-59
2021/12/06 02:08:59;;;;;;;1.90;1.50;;;3.60;99.90;;;;;;5115249;28;20940;-60
2021/12/06 02:11:28;;;;;;;1.73;1.57;;;3.70;99.90;;;;;;5115330;28;20444;-60
2021/12/06 02:14:04;;;;;;;2.57;1.53;;;3.70;99.90;;;;;;5115554;28;20820;-59
2021/12/06 02:16:39;;;;;;;4.53;1.10;;;3.70;99.90;;;;;;5114553;28;20439;-60
2021/12/06 02:19:08;;;;;;;1.67;1.20;;;3.60;99.90;;;;;;5116816;28;20427;-60
2021/12/06 02:21:41;;;;;;;3.23;1.33;;;3.60;99.90;;;;;;5117787;27;20792;-59
2021/12/06 02:24:10;;;;;;;3.63;1.00;;;3.60;99.90;;;;;;5118002;28;20479;-59
2021/12/06 02:26:41;;;;;;;2.40;1.43;;;3.50;99.90;;;;;;5117558;28;20438;-60
2021/12/06 02:29:10;;;;;;;2.07;1.30;;;3.50;99.90;;;;;;5118458;27;20459;-60
2021/12/06 02:31:38;;;;;;;3.67;1.27;;;3.50;99.90;;;;;;5119338;27;20467;-59
2021/12/06 02:34:06;;;;;;;4.90;2.10;;;3.60;99.90;;;;;;5119321;28;20478;-59
2021/12/06 02:36:34;;;;;;;2.50;1.40;;;3.60;99.90;;;;;;5119196;28;21130;-59
2021/12/06 02:39:08;;;;;;;5.57;2.50;;;3.60;99.90;;;;;;5117860;28;20436;-59
2021/12/06 02:41:35;;;;;;;3.30;1.60;;;3.60;99.90;;;;;;5119659;28;20441;-59
2021/12/06 02:44:04;;;;;;;3.77;2.67;;;3.60;99.90;;;;;;5119915;27;21728;-59
2021/12/06 02:46:34;;;;;;;4.37;1.90;;;3.60;99.90;;;;;;5119496;28;20494;-59
2021/12/06 02:49:03;;;;;;;4.17;1.93;;;3.70;99.90;;;;;;5119375;28;20480;-59
2021/12/06 02:51:31;;;;;;;3.00;1.47;;;3.70;99.90;;;;;;5119392;28;20558;-59
2021/12/06 02:53:58;;;;;;;3.13;2.37;;;3.60;99.90;;;;;;5118676;28;20422;-58
2021/12/06 02:56:33;;;;;;;4.20;1.73;;;3.60;99.90;;;;;;5119374;28;20423;-59
2021/12/06 02:59:02;;;;;;;4.03;1.73;;;3.60;99.90;;;;;;5117961;28;20891;-58
2021/12/06 03:01:35;;;;;;;2.47;2.10;;;3.70;99.90;;;;;;5118638;28;20444;-59
2021/12/06 03:04:04;;;;;;;6.00;2.40;;;3.50;99.90;;;;;;5119012;28;20467;-58
2021/12/06 03:06:33;;;;;;;3.67;1.50;;;3.40;99.90;;;;;;5119057;28;20456;-59
2021/12/06 03:09:08;;;;;;;2.03;1.40;;;3.40;99.90;;;;;;5118641;28;21023;-59
2021/12/06 03:11:40;;;;;;;4.37;1.93;;;3.40;99.90;;;;;;5117644;28;20454;-59
2021/12/06 03:14:09;;;;;;;5.17;2.70;;;3.40;99.90;;;;;;5116574;28;20766;-59
2021/12/06 03:16:36;;;;;;;3.00;1.60;;;3.50;99.90;;;;;;5118483;28;20856;-60
2021/12/06 03:19:06;;;;;;;9.80;2.87;;;3.50;99.90;;;;;;5118010;28;20822;-59
2021/12/06 03:21:34;;;;;;;3.97;2.33;;;3.50;99.90;;;;;;5118250;28;20448;-59
2021/12/06 03:24:02;;;;;;;2.70;2.13;;;3.50;99.90;;;;;;5118670;27;20727;-59
2021/12/06 03:26:31;;;;;;;6.57;3.10;;;3.50;99.90;;;;;;5119218;28;20932;-59
2021/12/06 03:29:00;;;;;;;4.77;3.17;;;3.50;99.90;;;;;;5118480;28;20480;-59
2021/12/06 03:31:28;;;;;;;5.10;2.00;;;3.50;99.90;;;;;;5118352;28;20505;-59
2021/12/06 03:33:58;;;;;;;6.30;4.03;;;3.60;99.90;;;;;;5118421;27;20449;-59
2021/12/06 03:36:28;;;;;;;3.27;2.30;;;3.50;99.90;;;;;;5117566;28;20924;-59
2021/12/06 03:38:57;;;;;;;2.93;2.13;;;3.50;99.90;;;;;;5116679;28;20459;-59
2021/12/06 03:41:26;;;;;;;3.80;2.13;;;3.50;99.90;;;;;;5116764;28;20441;-59
2021/12/06 03:43:55;;;;;;;5.37;3.20;;;3.50;99.90;;;;;;5116557;28;20576;-59
2021/12/06 03:46:25;;;;;;;5.03;3.70;;;3.50;99.90;;;;;;5116058;28;20525;-59
2021/12/06 03:48:53;;;;;;;3.83;2.43;;;3.50;99.90;;;;;;5116991;28;20481;-59
2021/12/06 03:51:21;;;;;;;2.70;1.83;;;3.60;99.90;;;;;;5116390;28;20463;-59
2021/12/06 03:53:48;;;;;;;3.20;2.10;;;3.70;99.90;;;;;;5115543;28;20882;-59
2021/12/06 03:56:16;;;;;;;3.13;1.80;;;3.70;99.90;;;;;;5117270;28;20452;-59
2021/12/06 03:58:44;;;;;;;4.33;2.07;;;3.70;99.90;;;;;;5116470;28;20489;-56
2021/12/06 04:01:12;;;;;;;3.87;2.87;;;3.70;99.90;;;;;;5117906;28;20445;-59
2021/12/06 04:03:42;;;;;;;4.27;2.00;;;3.70;99.90;;;;;;5117232;28;20551;-59
2021/12/06 04:06:09;;;;;;;7.67;2.80;;;3.70;99.90;;;;;;5118124;28;20484;-59
2021/12/06 04:08:37;;;;;;;4.30;3.23;;;3.60;99.90;;;;;;5117829;28;20456;-59
2021/12/06 04:11:04;;;;;;;7.03;3.50;;;3.50;99.90;;;;;;5118322;28;20464;-59
2021/12/06 04:13:32;;;;;;;7.30;3.83;;;3.50;99.90;;;;;;5117997;28;20797;-59
2021/12/06 04:16:00;;;;;;;6.63;4.00;;;3.50;99.90;;;;;;5118204;28;20451;-59
2021/12/06 04:18:28;;;;;;;9.10;3.53;;;3.40;99.90;;;;;;5117882;28;20433;-59
2021/12/06 04:20:58;;;;;;;5.83;3.27;;;3.50;99.90;;;;;;5117809;28;20435;-59
2021/12/06 04:23:26;;;;;;;6.73;4.50;;;3.60;99.90;;;;;;5117530;28;20505;-58
2021/12/06 04:25:53;;;;;;;8.07;4.03;;;3.70;99.90;;;;;;5117962;28;20452;-59
2021/12/06 04:28:21;;;;;;;7.00;3.60;;;3.50;99.90;;;;;;5118293;28;20487;-59
2021/12/06 04:30:51;;;;;;;7.30;3.40;;;3.50;99.90;;;;;;5117293;28;20442;-59
2021/12/06 04:33:19;;;;;;;4.57;2.27;;;3.40;99.90;;;;;;5117421;28;20506;-58
2021/12/06 04:35:47;;;;;;;5.03;3.73;;;3.40;99.90;;;;;;5117442;28;20459;-56
2021/12/06 04:38:16;;;;;;;7.50;3.80;;;3.40;99.90;;;;;;5117566;28;20479;-59
2021/12/06 04:40:43;;;;;;;8.47;4.40;;;3.50;99.90;;;;;;5117395;28;20456;-59
2021/12/06 04:43:12;;;;;;;9.33;3.87;;;3.60;99.90;;;;;;5115534;28;20887;-59
2021/12/06 04:45:39;;;;;;;7.73;3.40;;;3.70;99.90;;;;;;5116116;28;20435;-58
2021/12/06 04:48:08;;;;;;;11.97;5.00;;;3.70;99.90;;;;;;5115725;28;20840;-59
2021/12/06 04:50:37;;;;;;;8.17;3.57;;;3.70;99.90;;;;;;5114124;28;20517;-59
2021/12/06 04:53:11;;;;;;;7.80;3.43;;;3.70;99.90;;;;;;5114237;28;20451;-59
2021/12/06 04:55:43;;;;;;;7.67;2.53;;;3.70;99.90;;;;;;5114806;27;20543;-59
2021/12/06 04:58:18;;;;;;;8.30;4.80;;;3.70;99.90;;;;;;5115009;28;20420;-59
2021/12/06 05:00:49;;;;;;;10.67;5.10;;;3.70;99.90;;;;;;5115921;28;20444;-59
2021/12/06 05:03:18;;;;;;;6.63;3.20;;;3.70;99.90;;;;;;5117031;28;20894;-59
2021/12/06 05:05:49;;;;;;;9.20;5.80;;;3.60;99.90;;;;;;5116783;28;20452;-59
2021/12/06 05:08:18;;;;;;;7.17;3.43;;;3.50;99.90;;;;;;5117091;28;20488;-59
2021/12/06 05:10:48;;;;;;;5.73;3.10;;;3.50;99.90;;;;;;5114515;28;20754;-59
2021/12/06 05:13:16;;;;;;;4.50;2.80;;;3.40;99.90;;;;;;5110911;28;20467;-59
2021/12/06 05:15:44;;;;;;;7.87;3.30;;;3.30;99.90;;;;;;5116712;28;20449;-59
2021/12/06 05:18:12;;;;;;;8.20;3.63;;;3.30;99.90;;;;;;5116869;28;20823;-58
2021/12/06 05:20:40;;;;;;;7.43;3.40;;;3.30;99.90;;;;;;5116408;28;20431;-58
2021/12/06 05:23:09;;;;;;;11.13;4.27;;;3.30;99.90;;;;;;5116927;28;20695;-58
2021/12/06 05:25:37;;;;;;;5.60;3.30;;;3.30;99.90;;;;;;5116666;28;20460;-59
2021/12/06 05:28:07;;;;;;;5.47;2.53;;;3.40;99.90;;;;;;5116560;28;20823;-58
2021/12/06 05:30:37;;;;;;;5.20;2.40;;;3.50;99.90;;;;;;5116031;28;20799;-59
2021/12/06 05:33:04;;;;;;;6.70;3.00;;;3.50;99.90;;;;;;5114671;28;20419;-59
2021/12/06 05:35:32;;;;;;;6.13;2.53;;;3.60;99.90;;;;;;5114696;28;20510;-59
2021/12/06 05:38:02;;;;;;;6.60;3.00;;;3.60;99.90;;;;;;5115624;28;20816;-59
2021/12/06 05:40:31;;;;;;;6.37;3.67;;;3.60;99.90;;;;;;5115380;28;20427;-59
2021/12/06 05:43:00;;;;;;;8.43;2.93;;;3.50;99.90;;;;;;5115542;28;20771;-59
2021/12/06 05:45:32;;;;;;;6.50;3.80;;;3.60;99.90;;;;;;5115217;28;20863;-59
2021/12/06 05:48:00;;;;;;;5.40;2.00;;;3.60;99.90;;;;;;5114138;28;20445;-59
2021/12/06 05:50:28;;;;;;;6.47;2.20;;;3.50;99.90;;;;;;5114514;28;20517;-59
2021/12/06 05:52:57;;;;;;;3.87;2.27;;;3.50;99.90;;;;;;5114662;28;20441;-59
2021/12/06 05:55:27;;;;;;;6.87;3.33;;;3.60;99.90;;;;;;5115073;28;20460;-59
2021/12/06 05:57:54;;;;;;;8.47;3.47;;;3.70;99.90;;;;;;5114874;28;20531;-59
2021/12/06 06:00:24;;;;;;;3.47;1.83;;;3.80;99.90;;;;;;5115268;28;20456;-59
2021/12/06 06:02:54;;;;;;;5.50;3.60;;;3.70;99.90;;;;;;5116126;28;20484;-59
2021/12/06 06:05:22;;;;;;;10.17;2.53;;;3.60;99.90;;;;;;5114674;28;20434;-59
2021/12/06 06:07:49;;;;;;;8.07;3.60;;;3.50;99.90;;;;;;5114387;28;20449;-59
2021/12/06 06:10:17;;;;;;;5.57;3.50;;;3.40;99.90;;;;;;5114516;28;20489;-58
2021/12/06 06:12:45;;;;;;;3.67;1.70;;;3.40;99.90;;;;;;5114721;28;20501;-58
2021/12/06 06:15:13;;;;;;;6.83;2.63;;;3.30;99.90;;;;;;5114295;28;20432;-58
2021/12/06 06:17:43;;;;;;;5.63;2.33;;;3.40;99.90;;;;;;5114658;28;20446;-59
2021/12/06 06:20:15;;;;;;;6.90;3.60;;;3.40;99.90;;;;;;5113062;28;20437;-59
2021/12/06 06:22:43;;;;;;;9.40;3.33;;;3.50;99.90;;;;;;5115742;28;20746;-59
2021/12/06 06:25:11;;;;;;;4.20;2.27;;;3.60;99.90;;;;;;5115239;28;20503;-59
2021/12/06 06:27:38;;;;;;;6.53;3.07;;;3.60;99.90;;;;;;5114572;28;20408;-59
2021/12/06 06:30:08;;;;;;;5.33;3.67;;;3.60;99.90;;;;;;5111466;28;20549;-59
2021/12/06 06:32:35;;;;;;;5.77;3.33;;;3.70;99.90;;;;;;5113307;28;20432;-59
2021/12/06 06:35:04;;;;;;;5.67;2.60;;;3.60;99.90;;;;;;5114126;28;20431;-59
2021/12/06 06:37:33;;;;;;;8.07;3.23;;;3.50;99.90;;;;;;5114034;28;20945;-58
2021/12/06 06:40:01;;;;;;;7.13;3.20;;;3.50;99.90;;;;;;5114328;28;20423;-59
2021/12/06 06:42:28;;;;;;;7.17;4.07;;;3.50;99.90;;;;;;5115052;28;20468;-58
2021/12/06 06:44:57;;;;;;;6.53;2.20;;;3.50;99.90;;;;;;5114078;28;20423;-59
2021/12/06 06:47:28;;;;;;;8.20;2.73;;;3.50;99.90;;;;;;5113585;28;20419;-59
2021/12/06 06:49:55;;;;;;;7.10;3.13;;;3.50;99.90;;;;;;5111926;28;20767;-59
2021/12/06 06:52:23;;;;;;;8.63;4.03;;;3.50;99.90;;;;;;5113715;28;20419;-59
2021/12/06 06:54:52;;;;;;;6.77;3.03;;;3.60;99.90;;;;;;5112357;28;20580;-59
2021/12/06 06:57:20;;;;;;;8.03;2.93;;;3.70;99.90;;;;;;5100937;28;20888;-59
2021/12/06 06:59:48;;;;;;;6.93;3.47;;;3.80;99.90;;;;;;5093815;28;20888;-59
2021/12/06 07:02:16;;;;;;;60.43;30.43;;;3.70;99.90;;;;;;5094401;28;20908;-59
2021/12/06 07:04:45;;;;;;;4.27;2.10;;;3.70;99.90;;;;;;5093469;28;20457;-59
2021/12/06 07:07:12;;;;;;;9.87;2.83;;;3.70;99.90;;;;;;5097585;28;20452;-59
2021/12/06 07:09:42;;;;;;;5.53;3.20;;;3.80;99.90;;;;;;5097434;28;20535;-59
2021/12/06 07:12:16;;;;;;;7.10;3.80;;;4.00;99.90;;;;;;5097384;28;20870;-59
2021/12/06 07:14:44;;;;;;;7.23;3.87;;;4.40;99.90;;;;;;5096509;28;20538;-59
2021/12/06 07:17:12;;;;;;;6.60;2.80;;;4.60;99.90;;;;;;5097409;28;20445;-59
2021/12/06 07:19:39;;;;;;;8.70;3.50;;;4.80;99.90;;;;;;5096069;28;20460;-58
2021/12/06 07:22:07;;;;;;;6.10;2.60;;;4.60;99.90;;;;;;5097543;28;20885;-59
2021/12/06 07:24:36;;;;;;;5.80;2.30;;;4.50;99.90;;;;;;5096744;28;20900;-59
2021/12/06 07:27:04;;;;;;;5.97;2.20;;;4.50;99.90;;;;;;5096755;28;20458;-59
2021/12/06 07:29:35;;;;;;;6.60;3.20;;;4.70;99.90;;;;;;5094901;28;20778;-59
2021/12/06 07:32:05;;;;;;;7.43;2.10;;;4.80;99.90;;;;;;5094148;28;20458;-59
2021/12/06 07:34:34;;;;;;;4.90;2.80;;;5.10;99.90;;;;;;5094591;28;20449;-58
2021/12/06 07:37:02;;;;;;;8.63;5.33;;;5.20;99.90;;;;;;5095537;28;20871;-59
2021/12/06 07:39:30;;;;;;;9.32;4.40;;;5.00;99.90;;;;;;5094933;28;20452;-59
2021/12/06 07:41:57;;;;;;;4.50;2.27;;;5.00;99.90;;;;;;5096109;28;20460;-59
2021/12/06 07:44:25;;;;;;;5.67;3.43;;;5.00;99.90;;;;;;5096213;28;20465;-59
2021/12/06 07:46:55;;;;;;;6.37;2.30;;;5.00;99.90;;;;;;5097464;28;20441;-59
2021/12/06 07:49:23;;;;;;;7.77;2.57;;;4.90;99.90;;;;;;5097169;28;20834;-59
2021/12/06 07:51:50;;;;;;;5.27;2.10;;;5.00;99.90;;;;;;5097370;28;20889;-59
2021/12/06 07:54:18;;;;;;;8.30;3.00;;;5.10;99.90;;;;;;5096108;28;20511;-59
2021/12/06 07:56:46;;;;;;;4.73;2.17;;;5.20;99.90;;;;;;5096875;28;20877;-59
2021/12/06 07:59:13;;;;;;;7.13;2.10;;;5.10;99.90;;;;;;5095525;28;20534;-58
2021/12/06 08:01:41;;;;;;;6.17;2.60;;;5.30;99.90;;;;;;5096568;28;20784;-59
2021/12/06 08:04:10;;;;;;;8.10;2.70;;;5.40;99.90;;;;;;5096796;28;20751;-59
2021/12/06 08:06:38;;;;;;;5.80;2.70;;;5.60;99.90;;;;;;5095427;28;20450;-58
2021/12/06 08:09:06;;;;;;;8.87;3.43;;;5.30;99.90;;;;;;5095705;28;20517;-59
2021/12/06 08:11:34;;;;;;;6.93;2.37;;;4.80;99.90;;;;;;5096268;28;20965;-59
2021/12/06 08:14:04;;;;;;;7.93;3.20;;;4.40;99.90;;;;;;5095931;28;20450;-59
2021/12/06 08:16:33;;;;;;;7.07;3.60;;;4.50;99.90;;;;;;5096790;28;20442;-59
2021/12/06 08:19:01;;;;;;;7.07;3.30;;;4.50;99.90;;;;;;5095315;28;20752;-59
2021/12/06 08:21:31;;;;;;;9.20;3.20;;;4.30;99.90;;;;;;5093482;28;20411;-59
2021/12/06 08:23:59;;;;;;;7.57;2.53;;;4.80;99.90;;;;;;5095723;28;20771;-59
2021/12/06 08:26:29;;;;;;;5.67;2.33;;;4.80;99.90;;;;;;5094628;28;20476;-59
2021/12/06 08:28:57;;;;;;;4.33;1.60;;;4.90;99.90;;;;;;5094878;28;20804;-59
2021/12/06 08:31:27;;;;;;;4.93;2.47;;;5.30;99.90;;;;;;5094552;28;20446;-60
2021/12/06 08:33:57;;;;;;;5.27;2.20;;;5.80;99.90;;;;;;5094290;28;20892;-56
2021/12/06 08:36:25;;;;;;;5.60;2.53;;;6.10;99.90;;;;;;5092676;28;20483;-54
2021/12/06 08:38:54;;;;;;;5.90;1.63;;;5.90;99.90;;;;;;5093159;28;20530;-54
2021/12/06 08:41:24;;;;;;;5.53;2.50;;;5.90;99.90;;;;;;5094090;28;20848;-53
2021/12/06 08:43:53;;;;;;;2.60;1.17;;;5.90;99.90;;;;;;5094083;28;20506;-57
2021/12/06 08:46:23;;;;;;;2.77;1.50;;;5.90;99.90;;;;;;5094074;28;20444;-55
2021/12/06 08:48:52;;;;;;;5.10;2.73;;;5.80;99.90;;;;;;5094604;28;20453;-54
2021/12/06 08:51:22;;;;;;;6.87;2.20;;;5.80;99.90;;;;;;5094197;28;20450;-54
2021/12/06 08:53:51;;;;;;;4.27;1.90;;;5.70;99.90;;;;;;5093056;28;20454;-56
2021/12/06 08:56:21;;;;;;;4.30;1.57;;;5.20;99.90;;;;;;5092687;28;20840;-52
2021/12/06 08:58:50;;;;;;;2.80;1.77;;;5.10;99.90;;;;;;5092805;28;20441;-55
2021/12/06 09:01:18;;;;;;;3.87;1.23;;;5.40;99.90;;;;;;5091677;28;20484;-57
2021/12/06 09:03:46;;;;;;;2.67;1.03;;;5.60;99.90;;;;;;5093582;28;20457;-55
2021/12/06 09:06:20;;;;;;;3.60;1.70;;;5.70;99.90;;;;;;5141769;22;20502;-72
2021/12/06 09:08:47;;;;;;;5.07;1.60;;;5.90;99.90;;;;;;5073332;28;20442;-72
2021/12/06 09:11:14;;;;;;;2.63;1.10;;;5.60;99.90;;;;;;5073290;28;20482;-71
2021/12/06 09:13:46;;;;;;;4.40;2.17;;;5.70;99.90;;;;;;5073069;28;20500;-72
2021/12/06 09:16:14;;;;;;;3.28;1.77;;;5.80;99.90;;;;;;5073939;28;20455;-71
2021/12/06 09:18:45;;;;;;;2.77;1.20;;;6.00;99.90;;;;;;5090010;28;20557;-72
2021/12/06 09:21:15;;;;;;;2.90;1.20;;;6.20;99.90;;;;;;5093840;28;20477;-72
2021/12/06 09:23:49;;;;;;;2.50;1.30;;;6.30;99.90;;;;;;5094835;28;20458;-73
2021/12/06 09:26:16;;;;;;;4.33;1.43;;;6.10;99.90;;;;;;5088366;28;20455;-72
2021/12/06 09:28:48;;;;;;;7.63;1.10;;;6.30;99.90;;;;;;5091262;28;20585;-72
2021/12/06 09:31:19;;;;;;;3.47;1.53;;;6.50;99.90;;;;;;5094280;28;20517;-72
2021/12/06 09:33:47;;;;;;;4.63;1.23;;;6.60;99.90;;;;;;5090667;28;20456;-72
2021/12/06 09:36:14;;;;;;;3.40;1.17;;;6.50;99.90;;;;;;5093252;28;20545;-72
2021/12/06 09:38:45;;;;;;;2.03;1.47;;;6.70;99.90;;;;;;5094163;28;20892;-73
2021/12/06 09:41:19;;;;;;;2.27;1.20;;;6.70;99.90;;;;;;5094282;28;20557;-72
2021/12/06 09:43:49;;;;;;;4.00;1.33;;;6.70;99.90;;;;;;5094834;28;20496;-72
2021/12/06 09:46:16;;;;;;;5.87;1.70;;;6.90;99.90;;;;;;5094616;28;20518;-73
2021/12/06 09:48:48;;;;;;;3.50;1.10;;;7.00;99.90;;;;;;5094924;28;20721;-73
2021/12/06 09:51:21;;;;;;;3.23;1.40;;;7.20;99.90;;;;;;5093900;28;20836;-74
2021/12/06 09:53:50;;;;;;;3.70;1.30;;;7.10;99.90;;;;;;5094763;28;20449;-73
2021/12/06 09:56:23;;;;;;;2.60;1.20;;;7.20;99.90;;;;;;5094820;28;20456;-73
2021/12/06 09:58:52;;;;;;;3.40;1.80;;;6.90;99.90;;;;;;5094773;28;20456;-73
2021/12/06 10:01:29;;;;;;;3.27;1.67;;;6.70;99.90;;;;;;5094320;28;20912;-73
2021/12/06 10:04:09;;;;;;;2.17;1.10;;;6.30;99.90;;;;;;5092870;28;21062;-73
2021/12/06 10:06:40;;;;;;;3.10;1.27;;;6.10;99.90;;;;;;5093919;28;20508;-73
2021/12/06 10:09:09;;;;;;;5.93;2.40;;;6.00;99.90;;;;;;5093275;28;20436;-73
2021/12/06 10:11:37;;;;;;;3.37;1.30;;;6.30;99.90;;;;;;5082417;28;20571;-73
2021/12/06 10:14:06;;;;;;;2.80;1.20;;;6.50;99.90;;;;;;5075511;28;20867;-73
2021/12/06 10:16:37;;;;;;;3.00;1.33;;;6.80;99.90;;;;;;5072987;28;20792;-73
2021/12/06 10:19:05;;;;;;;4.63;1.87;;;6.90;99.90;;;;;;5073112;28;20508;-72
2021/12/06 10:21:36;;;;;;;3.83;1.40;;;7.00;99.90;;;;;;5073434;28;20508;-71
2021/12/06 10:24:08;;;;;;;2.37;1.27;;;6.90;99.90;;;;;;5072269;28;20458;-72
2021/12/06 10:26:37;;;;;;;2.90;1.10;;;7.10;99.90;;;;;;5073201;28;20828;-72
2021/12/06 10:29:09;;;;;;;5.20;1.20;;;6.90;99.90;;;;;;5092937;28;20449;-72
2021/12/06 10:31:44;;;;;;;2.93;1.20;;;6.80;99.90;;;;;;5094016;28;20574;-72
2021/12/06 10:34:15;;;;;;;4.80;2.00;;;7.00;99.90;;;;;;5092972;28;20738;-72
2021/12/06 10:36:51;;;;;;;6.17;1.67;;;7.20;99.90;;;;;;5093293;28;20454;-72
2021/12/06 10:39:18;;;;;;;2.33;1.00;;;7.20;99.90;;;;;;5092500;28;20505;-72
2021/12/06 10:41:49;;;;;;;1.90;0.97;;;7.00;99.90;;;;;;5096363;28;20460;-72
2021/12/06 10:44:19;;;;;;;1.83;0.87;;;7.20;99.90;;;;;;5095792;28;20457;-73
2021/12/06 10:46:55;;;;;;;3.30;1.30;;;7.40;99.90;;;;;;5096623;28;20465;-73
2021/12/06 10:49:25;;;;;;;4.23;1.17;;;7.60;99.90;;;;;;5096642;28;20503;-73
2021/12/06 10:51:53;;;;;;;1.67;1.00;;;7.40;99.90;;;;;;5097531;28;20486;-74
2021/12/06 10:54:33;;;;;;;2.40;0.90;;;7.00;99.90;;;;;;5097764;28;20979;-73
2021/12/06 10:57:03;;;;;;;2.57;0.97;;;6.60;99.90;;;;;;5097088;28;20459;-73
2021/12/06 10:59:39;;;;;;;1.20;0.70;;;6.50;99.90;;;;;;5097110;28;20532;-72
2021/12/06 11:02:09;;;;;;;1.40;0.70;;;6.30;99.90;;;;;;5097769;28;20528;-73
2021/12/06 11:04:38;;;;;;;2.30;0.90;;;6.20;99.90;;;;;;5092134;28;20825;-72
2021/12/06 11:07:11;;;;;;;1.07;0.70;;;6.20;99.90;;;;;;5075179;28;20478;-72
2021/12/06 11:09:39;;;;;;;0.93;0.60;;;6.00;99.90;;;;;;5071862;28;20753;-72
2021/12/06 11:12:18;;;;;;;1.33;0.73;;;6.10;99.90;;;;;;5074856;28;20478;-73
2021/12/06 11:14:50;;;;;;;2.80;0.70;;;6.10;99.90;;;;;;5075240;28;21093;-73
2021/12/06 11:17:21;;;;;;;2.67;0.80;;;5.80;99.90;;;;;;5076326;28;20897;-72
2021/12/06 11:22:54;;;;;;;1.40;0.83;;;6.10;99.90;;;;;;5083337;28;20468;-73
2021/12/06 11:25:21;;;;;;;1.80;0.80;;;5.90;99.90;;;;;;5068479;28;20470;-74
2021/12/06 11:27:49;;;;;;;2.07;0.80;;;6.00;99.90;;;;;;5077068;28;20562;-72
2021/12/06 11:30:35;;;;;;;2.20;1.17;;;6.10;99.90;;;;;;5090131;28;21103;-73
2021/12/06 11:33:29;;;;;;;1.30;0.70;;;6.10;99.90;;;;;;5088353;28;20761;-72
2021/12/06 11:36:00;;;;;;;1.37;0.70;;;6.20;99.90;;;;;;5094530;28;20867;-73
2021/12/06 11:38:29;;;;;;;2.13;0.83;;;6.10;99.90;;;;;;5089849;28;20453;-73
2021/12/06 11:41:00;;;;;;;2.23;0.90;;;6.10;99.90;;;;;;5087651;28;20473;-72
2021/12/06 11:43:27;;;;;;;3.03;1.07;;;5.80;99.90;;;;;;5082960;28;20474;-72
2021/12/06 11:45:58;;;;;;;2.03;0.70;;;5.70;99.90;;;;;;5075378;28;20470;-72
2021/12/06 11:48:28;;;;;;;2.13;1.00;;;5.80;99.90;;;;;;5086303;28;20449;-72
2021/12/06 11:51:00;;;;;;;1.87;1.10;;;5.90;99.90;;;;;;5087157;28;20583;-73
2021/12/06 11:53:33;;;;;;;2.60;0.80;;;6.10;99.90;;;;;;5095928;28;20485;-73
2021/12/06 11:56:03;;;;;;;1.50;0.90;;;6.20;99.90;;;;;;5073536;28;20481;-72
2021/12/06 11:58:33;;;;;;;1.60;0.90;;;6.40;99.90;;;;;;5074585;28;20537;-72
2021/12/06 12:01:28;;;;;;;1.30;0.77;;;6.50;99.90;;;;;;5055882;28;20476;-73
2021/12/06 12:04:01;;;;;;;1.00;0.60;;;6.50;99.90;;;;;;5073785;28;20451;-72
2021/12/06 12:06:31;;;;;;;1.17;0.70;;;6.50;99.90;;;;;;5071684;28;20482;-72
2021/12/06 12:09:14;;;;;;;1.10;0.60;;;6.50;99.90;;;;;;5070763;28;20470;-72
2021/12/06 12:12:22;;;;;;;2.00;1.10;;;6.40;99.90;;;;;;5072319;28;20872;-72
2021/12/06 12:14:55;;;;;;;1.30;0.70;;;6.50;99.90;;;;;;5073904;28;20479;-72
2021/12/06 12:17:37;;;;;;;1.03;0.50;;;6.30;99.90;;;;;;5073946;28;20447;-73
2021/12/06 12:20:09;;;;;;;1.10;0.60;;;6.20;99.90;;;;;;5072959;28;20496;-72
2021/12/06 12:22:39;;;;;;;2.53;0.70;;;6.30;99.90;;;;;;5075388;28;20454;-72
2021/12/06 12:25:22;;;;;;;1.80;0.70;;;6.30;99.90;;;;;;5074492;28;20553;-72
2021/12/06 12:27:58;;;;;;;1.30;0.60;;;6.40;99.90;;;;;;5074409;28;21055;-72
2021/12/06 12:30:33;;;;;;;1.43;0.60;;;6.50;99.90;;;;;;5071000;28;20485;-73
2021/12/06 12:33:03;;;;;;;3.63;0.50;;;6.80;99.90;;;;;;5069167;28;20833;-73
2021/12/06 12:35:33;;;;;;;1.40;0.50;;;7.30;99.90;;;;;;5070708;28;20460;-73
2021/12/06 12:38:01;;;;;;;0.70;0.40;;;7.50;99.90;;;;;;5074867;28;20466;-73
2021/12/06 12:40:41;;;;;;;1.03;0.50;;;7.50;99.90;;;;;;5063551;28;20468;-72
2021/12/06 12:43:17;;;;;;;0.63;0.40;;;7.60;99.90;;;;;;5071265;28;20486;-72
2021/12/06 12:45:49;;;;;;;0.70;0.30;;;7.70;99.90;;;;;;5073724;28;20492;-72
2021/12/06 12:48:25;;;;;;;0.53;0.30;;;7.60;99.90;;;;;;5073503;28;20474;-72
2021/12/06 12:51:05;;;;;;;1.23;0.50;;;7.70;99.90;;;;;;5073534;28;20580;-72
2021/12/06 12:53:46;;;;;;;0.80;0.40;;;7.60;99.90;;;;;;5074593;28;20442;-72
2021/12/06 12:56:22;;;;;;;1.00;0.53;;;7.60;99.90;;;;;;5074133;28;20439;-72
2021/12/06 12:58:53;;;;;;;1.00;0.50;;;7.40;99.90;;;;;;5075043;28;20830;-72
2021/12/06 13:01:29;;;;;;;1.00;0.70;;;7.00;99.90;;;;;;5057246;28;20866;-72
2021/12/06 13:04:09;;;;;;;1.30;0.60;;;6.70;99.90;;;;;;5075026;28;20447;-73
2021/12/06 13:06:39;;;;;;;1.00;0.50;;;6.40;99.90;;;;;;5075606;28;20478;-72
2021/12/06 13:09:10;;;;;;;3.63;0.50;;;6.70;99.90;;;;;;5074849;28;20793;-73
2021/12/06 13:12:05;;;;;;;2.60;0.60;;;6.70;99.90;;;;;;5072820;28;20559;-73
2021/12/06 13:14:39;;;;;;;1.63;0.70;;;6.60;99.90;;;;;;5073177;28;20446;-72
2021/12/06 13:17:11;;;;;;;0.87;0.40;;;6.60;99.90;;;;;;5073168;28;20456;-72
2021/12/06 13:19:50;;;;;;;0.90;0.50;;;6.60;99.90;;;;;;5072671;28;20932;-71
2021/12/06 13:22:19;;;;;;;2.47;0.70;;;6.80;99.90;;;;;;5072985;28;20446;-72
2021/12/06 13:25:03;;;;;;;1.10;0.40;;;7.10;99.90;;;;;;5073803;28;20451;-74
2021/12/06 13:27:43;;;;;;;0.93;0.60;;;7.40;99.90;;;;;;5074726;28;20442;-73